sensor_id;sensor_type;location;lat;lon;timestamp;temperature;humidity
55313;DHT22;46892;45.668;11.756;2024-02-26T00:01:41;7.90;86.10
55313;DHT22;46892;45.668;11.756;2024-02-26T00:04:09;8.00;86.30
55313;DHT22;46892;45.668;11.756;2024-02-26T00:06:35;8.00;86.20
55313;DHT22;46892;45.668;11.756;2024-02-26T00:09:01;7.90;85.70
55313;DHT22;46892;45.668;11.756;2024-02-26T00:11:28;7.80;85.50
55313;DHT22;46892;45.668;11.756;2024-02-26T00:13:53;7.80;86.00
55313;DHT22;46892;45.668;11.756;2024-02-26T00:16:19;7.80;85.70
55313;DHT22;46892;45.668;11.756;2024-02-26T00:18:45;7.70;86.40
55313;DHT22;46892;45.668;11.756;2024-02-26T00:21:11;7.70;86.00
55313;DHT22;46892;45.668;11.756;2024-02-26T00:23:37;7.70;86.20
55313;DHT22;46892;45.668;11.756;2024-02-26T00:26:03;7.70;86.30
55313;DHT22;46892;45.668;11.756;2024-02-26T00:28:29;7.70;86.30
55313;DHT22;46892;45.668;11.756;2024-02-26T00:30:55;7.70;86.60
55313;DHT22;46892;45.668;11.756;2024-02-26T00:33:22;7.70;86.60
55313;DHT22;46892;45.668;11.756;2024-02-26T00:35:48;7.70;86.60
55313;DHT22;46892;45.668;11.756;2024-02-26T00:38:14;7.70;86.80
55313;DHT22;46892;45.668;11.756;2024-02-26T00:40:40;7.70;86.90
55313;DHT22;46892;45.668;11.756;2024-02-26T00:43:08;7.60;87.10
55313;DHT22;46892;45.668;11.756;2024-02-26T00:45:34;7.70;86.90
55313;DHT22;46892;45.668;11.756;2024-02-26T00:48:00;7.70;86.80
55313;DHT22;46892;45.668;11.756;2024-02-26T00:50:30;7.60;86.80
55313;DHT22;46892;45.668;11.756;2024-02-26T00:52:56;7.70;86.60
55313;DHT22;46892;45.668;11.756;2024-02-26T00:55:22;7.60;86.60
55313;DHT22;46892;45.668;11.756;2024-02-26T00:57:47;7.60;86.60
55313;DHT22;46892;45.668;11.756;2024-02-26T01:00:14;7.50;86.70
55313;DHT22;46892;45.668;11.756;2024-02-26T01:02:39;7.50;86.60
55313;DHT22;46892;45.668;11.756;2024-02-26T01:05:07;7.40;86.50
55313;DHT22;46892;45.668;11.756;2024-02-26T01:07:35;7.40;86.50
55313;DHT22;46892;45.668;11.756;2024-02-26T01:10:04;7.30;86.40
55313;DHT22;46892;45.668;11.756;2024-02-26T01:12:32;7.30;86.60
55313;DHT22;46892;45.668;11.756;2024-02-26T01:14:57;7.30;86.40
55313;DHT22;46892;45.668;11.756;2024-02-26T01:17:23;7.20;86.60
55313;DHT22;46892;45.668;11.756;2024-02-26T01:19:49;7.00;87.10
55313;DHT22;46892;45.668;11.756;2024-02-26T01:22:15;7.00;87.30
55313;DHT22;46892;45.668;11.756;2024-02-26T01:24:40;7.00;87.50
55313;DHT22;46892;45.668;11.756;2024-02-26T01:27:06;7.00;88.00
55313;DHT22;46892;45.668;11.756;2024-02-26T01:29:33;7.10;87.80
55313;DHT22;46892;45.668;11.756;2024-02-26T01:31:59;7.20;87.40
55313;DHT22;46892;45.668;11.756;2024-02-26T01:34:24;7.20;86.50
55313;DHT22;46892;45.668;11.756;2024-02-26T01:36:50;7.10;86.40
55313;DHT22;46892;45.668;11.756;2024-02-26T01:39:16;7.00;87.20
55313;DHT22;46892;45.668;11.756;2024-02-26T01:41:42;6.90;87.50
55313;DHT22;46892;45.668;11.756;2024-02-26T01:44:07;6.80;87.70
55313;DHT22;46892;45.668;11.756;2024-02-26T01:46:34;6.90;87.60
55313;DHT22;46892;45.668;11.756;2024-02-26T01:49:01;6.90;87.40
55313;DHT22;46892;45.668;11.756;2024-02-26T01:51:28;7.00;87.50
55313;DHT22;46892;45.668;11.756;2024-02-26T01:53:54;6.90;87.30
55313;DHT22;46892;45.668;11.756;2024-02-26T01:56:20;7.00;87.20
55313;DHT22;46892;45.668;11.756;2024-02-26T01:58:48;7.00;87.40
55313;DHT22;46892;45.668;11.756;2024-02-26T02:01:15;7.10;87.00
55313;DHT22;46892;45.668;11.756;2024-02-26T02:03:44;7.00;87.00
55313;DHT22;46892;45.668;11.756;2024-02-26T02:06:11;7.10;87.10
55313;DHT22;46892;45.668;11.756;2024-02-26T02:08:37;7.20;86.80
55313;DHT22;46892;45.668;11.756;2024-02-26T02:11:03;7.20;86.60
55313;DHT22;46892;45.668;11.756;2024-02-26T02:13:29;7.20;86.50
55313;DHT22;46892;45.668;11.756;2024-02-26T02:15:55;7.20;86.50
55313;DHT22;46892;45.668;11.756;2024-02-26T02:18:20;7.20;86.50
55313;DHT22;46892;45.668;11.756;2024-02-26T02:20:46;7.30;86.30
55313;DHT22;46892;45.668;11.756;2024-02-26T02:23:12;7.30;85.80
55313;DHT22;46892;45.668;11.756;2024-02-26T02:25:38;7.20;85.80
55313;DHT22;46892;45.668;11.756;2024-02-26T02:28:04;7.20;85.40
55313;DHT22;46892;45.668;11.756;2024-02-26T02:30:31;7.00;85.30
55313;DHT22;46892;45.668;11.756;2024-02-26T02:32:58;6.90;85.80
55313;DHT22;46892;45.668;11.756;2024-02-26T02:35:24;6.80;85.60
55313;DHT22;46892;45.668;11.756;2024-02-26T02:37:54;6.60;86.40
55313;DHT22;46892;45.668;11.756;2024-02-26T02:40:20;6.40;87.10
55313;DHT22;46892;45.668;11.756;2024-02-26T02:42:45;6.30;87.60
55313;DHT22;46892;45.668;11.756;2024-02-26T02:45:11;6.30;87.70
55313;DHT22;46892;45.668;11.756;2024-02-26T02:47:37;6.20;87.80
55313;DHT22;46892;45.668;11.756;2024-02-26T02:50:06;6.30;87.70
55313;DHT22;46892;45.668;11.756;2024-02-26T02:52:32;6.20;87.70
55313;DHT22;46892;45.668;11.756;2024-02-26T02:54:58;6.20;87.80
55313;DHT22;46892;45.668;11.756;2024-02-26T02:57:24;6.20;87.80
55313;DHT22;46892;45.668;11.756;2024-02-26T02:59:50;6.20;88.10
55313;DHT22;46892;45.668;11.756;2024-02-26T03:02:15;6.30;88.60
55313;DHT22;46892;45.668;11.756;2024-02-26T03:04:41;6.30;88.30
55313;DHT22;46892;45.668;11.756;2024-02-26T03:07:07;6.30;86.70
55313;DHT22;46892;45.668;11.756;2024-02-26T03:09:32;6.30;87.00
55313;DHT22;46892;45.668;11.756;2024-02-26T03:11:58;6.40;87.10
55313;DHT22;46892;45.668;11.756;2024-02-26T03:14:24;6.30;86.80
55313;DHT22;46892;45.668;11.756;2024-02-26T03:16:54;6.30;86.30
55313;DHT22;46892;45.668;11.756;2024-02-26T03:19:20;6.30;86.50
55313;DHT22;46892;45.668;11.756;2024-02-26T03:21:46;6.20;86.10
55313;DHT22;46892;45.668;11.756;2024-02-26T03:24:11;6.10;86.40
55313;DHT22;46892;45.668;11.756;2024-02-26T03:26:38;6.10;86.90
55313;DHT22;46892;45.668;11.756;2024-02-26T03:29:04;6.10;87.00
55313;DHT22;46892;45.668;11.756;2024-02-26T03:31:30;6.10;87.10
55313;DHT22;46892;45.668;11.756;2024-02-26T03:33:56;6.10;87.00
55313;DHT22;46892;45.668;11.756;2024-02-26T03:36:21;6.10;87.30
55313;DHT22;46892;45.668;11.756;2024-02-26T03:38:48;6.10;87.30
55313;DHT22;46892;45.668;11.756;2024-02-26T03:41:14;6.10;87.40
55313;DHT22;46892;45.668;11.756;2024-02-26T03:43:40;5.90;87.50
55313;DHT22;46892;45.668;11.756;2024-02-26T03:46:09;5.80;88.00
55313;DHT22;46892;45.668;11.756;2024-02-26T03:48:36;5.90;88.40
55313;DHT22;46892;45.668;11.756;2024-02-26T03:51:03;5.90;88.20
55313;DHT22;46892;45.668;11.756;2024-02-26T03:53:29;5.90;88.30
55313;DHT22;46892;45.668;11.756;2024-02-26T03:55:54;5.90;88.10
55313;DHT22;46892;45.668;11.756;2024-02-26T03:58:21;5.80;88.20
55313;DHT22;46892;45.668;11.756;2024-02-26T04:00:47;5.90;88.40
55313;DHT22;46892;45.668;11.756;2024-02-26T04:03:15;5.90;88.50
55313;DHT22;46892;45.668;11.756;2024-02-26T04:05:41;6.00;88.50
55313;DHT22;46892;45.668;11.756;2024-02-26T04:08:07;6.00;88.30
55313;DHT22;46892;45.668;11.756;2024-02-26T04:10:33;5.90;87.90
55313;DHT22;46892;45.668;11.756;2024-02-26T04:13:04;5.90;88.00
55313;DHT22;46892;45.668;11.756;2024-02-26T04:15:31;5.90;87.90
55313;DHT22;46892;45.668;11.756;2024-02-26T04:17:57;5.80;87.90
55313;DHT22;46892;45.668;11.756;2024-02-26T04:20:23;5.80;88.40
55313;DHT22;46892;45.668;11.756;2024-02-26T04:22:48;5.80;88.40
55313;DHT22;46892;45.668;11.756;2024-02-26T04:25:14;5.80;88.50
55313;DHT22;46892;45.668;11.756;2024-02-26T04:27:40;5.80;88.20
55313;DHT22;46892;45.668;11.756;2024-02-26T04:30:07;5.80;88.00
55313;DHT22;46892;45.668;11.756;2024-02-26T04:32:33;5.80;88.20
55313;DHT22;46892;45.668;11.756;2024-02-26T04:35:00;5.60;88.60
55313;DHT22;46892;45.668;11.756;2024-02-26T04:37:26;5.60;88.90
55313;DHT22;46892;45.668;11.756;2024-02-26T04:39:58;5.60;89.30
55313;DHT22;46892;45.668;11.756;2024-02-26T04:42:24;5.60;89.30
55313;DHT22;46892;45.668;11.756;2024-02-26T04:44:50;5.50;88.80
55313;DHT22;46892;45.668;11.756;2024-02-26T04:47:16;5.50;88.70
55313;DHT22;46892;45.668;11.756;2024-02-26T04:49:41;5.50;88.80
55313;DHT22;46892;45.668;11.756;2024-02-26T04:52:07;5.50;88.90
55313;DHT22;46892;45.668;11.756;2024-02-26T04:54:33;5.60;89.20
55313;DHT22;46892;45.668;11.756;2024-02-26T04:56:59;5.60;89.10
55313;DHT22;46892;45.668;11.756;2024-02-26T04:59:24;5.60;89.20
55313;DHT22;46892;45.668;11.756;2024-02-26T05:01:50;5.60;89.20
55313;DHT22;46892;45.668;11.756;2024-02-26T05:04:18;5.70;89.30
55313;DHT22;46892;45.668;11.756;2024-02-26T05:06:44;5.80;89.10
55313;DHT22;46892;45.668;11.756;2024-02-26T05:09:10;5.80;89.10
55313;DHT22;46892;45.668;11.756;2024-02-26T05:11:37;5.80;89.20
55313;DHT22;46892;45.668;11.756;2024-02-26T05:14:03;5.80;89.10
55313;DHT22;46892;45.668;11.756;2024-02-26T05:16:28;5.80;89.10
55313;DHT22;46892;45.668;11.756;2024-02-26T05:18:56;5.80;88.80
55313;DHT22;46892;45.668;11.756;2024-02-26T05:21:22;5.70;89.10
55313;DHT22;46892;45.668;11.756;2024-02-26T05:23:48;5.80;89.30
55313;DHT22;46892;45.668;11.756;2024-02-26T05:26:20;5.80;89.10
55313;DHT22;46892;45.668;11.756;2024-02-26T05:28:46;5.90;89.00
55313;DHT22;46892;45.668;11.756;2024-02-26T05:31:16;5.90;89.20
55313;DHT22;46892;45.668;11.756;2024-02-26T05:33:42;5.90;89.30
55313;DHT22;46892;45.668;11.756;2024-02-26T05:36:08;6.00;89.20
55313;DHT22;46892;45.668;11.756;2024-02-26T05:38:33;6.00;89.00
55313;DHT22;46892;45.668;11.756;2024-02-26T05:40:59;6.00;89.10
55313;DHT22;46892;45.668;11.756;2024-02-26T05:43:28;6.00;89.10
55313;DHT22;46892;45.668;11.756;2024-02-26T05:45:54;6.10;89.10
55313;DHT22;46892;45.668;11.756;2024-02-26T05:48:21;6.10;89.10
55313;DHT22;46892;45.668;11.756;2024-02-26T05:50:47;6.10;89.10
55313;DHT22;46892;45.668;11.756;2024-02-26T05:53:13;6.10;89.50
55313;DHT22;46892;45.668;11.756;2024-02-26T05:55:38;6.10;89.60
55313;DHT22;46892;45.668;11.756;2024-02-26T05:58:05;6.20;89.60
55313;DHT22;46892;45.668;11.756;2024-02-26T06:00:30;6.30;89.40
55313;DHT22;46892;45.668;11.756;2024-02-26T06:02:56;6.30;89.20
55313;DHT22;46892;45.668;11.756;2024-02-26T06:05:23;6.30;89.10
55313;DHT22;46892;45.668;11.756;2024-02-26T06:07:50;6.30;88.80
55313;DHT22;46892;45.668;11.756;2024-02-26T06:10:15;6.30;88.80
55313;DHT22;46892;45.668;11.756;2024-02-26T06:12:41;6.50;88.60
55313;DHT22;46892;45.668;11.756;2024-02-26T06:15:07;6.50;88.70
55313;DHT22;46892;45.668;11.756;2024-02-26T06:17:33;6.50;88.50
55313;DHT22;46892;45.668;11.756;2024-02-26T06:19:59;6.40;88.60
55313;DHT22;46892;45.668;11.756;2024-02-26T06:22:26;6.50;88.80
55313;DHT22;46892;45.668;11.756;2024-02-26T06:24:51;6.50;88.50
55313;DHT22;46892;45.668;11.756;2024-02-26T06:27:17;6.60;88.70
55313;DHT22;46892;45.668;11.756;2024-02-26T06:29:43;6.60;88.70
55313;DHT22;46892;45.668;11.756;2024-02-26T06:32:09;6.60;88.40
55313;DHT22;46892;45.668;11.756;2024-02-26T06:34:35;6.60;89.00
55313;DHT22;46892;45.668;11.756;2024-02-26T06:37:01;6.70;88.70
55313;DHT22;46892;45.668;11.756;2024-02-26T06:39:29;6.60;88.70
55313;DHT22;46892;45.668;11.756;2024-02-26T06:41:54;6.70;88.80
55313;DHT22;46892;45.668;11.756;2024-02-26T06:44:25;6.70;88.10
55313;DHT22;46892;45.668;11.756;2024-02-26T06:46:51;6.60;88.70
55313;DHT22;46892;45.668;11.756;2024-02-26T06:49:17;6.70;88.60
55313;DHT22;46892;45.668;11.756;2024-02-26T06:51:43;6.70;88.50
55313;DHT22;46892;45.668;11.756;2024-02-26T06:54:08;6.70;88.80
55313;DHT22;46892;45.668;11.756;2024-02-26T06:56:35;6.70;88.60
55313;DHT22;46892;45.668;11.756;2024-02-26T06:59:00;6.70;88.60
55313;DHT22;46892;45.668;11.756;2024-02-26T07:01:26;6.80;88.70
55313;DHT22;46892;45.668;11.756;2024-02-26T07:03:52;6.80;88.80
55313;DHT22;46892;45.668;11.756;2024-02-26T07:06:18;6.80;88.70
55313;DHT22;46892;45.668;11.756;2024-02-26T07:08:43;6.80;88.80
55313;DHT22;46892;45.668;11.756;2024-02-26T07:11:12;6.80;88.80
55313;DHT22;46892;45.668;11.756;2024-02-26T07:13:39;6.80;88.90
55313;DHT22;46892;45.668;11.756;2024-02-26T07:16:05;6.80;89.00
55313;DHT22;46892;45.668;11.756;2024-02-26T07:18:31;6.80;89.00
55313;DHT22;46892;45.668;11.756;2024-02-26T07:20:56;6.90;89.00
55313;DHT22;46892;45.668;11.756;2024-02-26T07:23:22;7.00;89.00
55313;DHT22;46892;45.668;11.756;2024-02-26T07:25:48;7.00;88.80
55313;DHT22;46892;45.668;11.756;2024-02-26T07:28:16;7.10;89.00
55313;DHT22;46892;45.668;11.756;2024-02-26T07:30:41;7.10;88.70
55313;DHT22;46892;45.668;11.756;2024-02-26T07:33:07;7.10;88.80
55313;DHT22;46892;45.668;11.756;2024-02-26T07:35:33;7.20;88.50
55313;DHT22;46892;45.668;11.756;2024-02-26T07:37:59;7.10;88.70
55313;DHT22;46892;45.668;11.756;2024-02-26T07:40:25;7.20;88.80
55313;DHT22;46892;45.668;11.756;2024-02-26T07:42:51;7.10;88.80
55313;DHT22;46892;45.668;11.756;2024-02-26T07:45:16;7.20;88.70
55313;DHT22;46892;45.668;11.756;2024-02-26T07:47:46;7.20;88.80
55313;DHT22;46892;45.668;11.756;2024-02-26T07:50:12;7.10;88.70
55313;DHT22;46892;45.668;11.756;2024-02-26T07:52:38;7.10;88.80
55313;DHT22;46892;45.668;11.756;2024-02-26T07:55:04;7.10;89.00
55313;DHT22;46892;45.668;11.756;2024-02-26T07:57:31;7.20;88.90
55313;DHT22;46892;45.668;11.756;2024-02-26T07:59:56;7.20;89.00
55313;DHT22;46892;45.668;11.756;2024-02-26T08:02:22;7.30;89.00
55313;DHT22;46892;45.668;11.756;2024-02-26T08:04:48;7.30;88.90
55313;DHT22;46892;45.668;11.756;2024-02-26T08:07:13;7.30;88.90
55313;DHT22;46892;45.668;11.756;2024-02-26T08:09:39;7.30;89.00
55313;DHT22;46892;45.668;11.756;2024-02-26T08:12:05;7.30;89.30
55313;DHT22;46892;45.668;11.756;2024-02-26T08:14:31;7.40;89.40
55313;DHT22;46892;45.668;11.756;2024-02-26T08:16:58;7.40;89.20
55313;DHT22;46892;45.668;11.756;2024-02-26T08:19:24;7.40;89.20
55313;DHT22;46892;45.668;11.756;2024-02-26T08:21:50;7.50;89.10
55313;DHT22;46892;45.668;11.756;2024-02-26T08:24:16;7.50;89.10
55313;DHT22;46892;45.668;11.756;2024-02-26T08:26:42;7.50;89.00
55313;DHT22;46892;45.668;11.756;2024-02-26T08:29:08;7.60;88.30
55313;DHT22;46892;45.668;11.756;2024-02-26T08:31:34;7.70;88.00
55313;DHT22;46892;45.668;11.756;2024-02-26T08:34:05;7.70;88.00
55313;DHT22;46892;45.668;11.756;2024-02-26T08:36:34;7.80;88.20
55313;DHT22;46892;45.668;11.756;2024-02-26T08:39:01;7.80;87.40
55313;DHT22;46892;45.668;11.756;2024-02-26T08:41:27;7.80;87.40
55313;DHT22;46892;45.668;11.756;2024-02-26T08:43:53;7.80;87.20
55313;DHT22;46892;45.668;11.756;2024-02-26T08:46:20;7.90;86.90
55313;DHT22;46892;45.668;11.756;2024-02-26T08:48:46;7.80;86.80
55313;DHT22;46892;45.668;11.756;2024-02-26T08:51:12;7.90;86.90
55313;DHT22;46892;45.668;11.756;2024-02-26T08:53:38;8.00;87.00
55313;DHT22;46892;45.668;11.756;2024-02-26T08:56:05;8.00;86.60
55313;DHT22;46892;45.668;11.756;2024-02-26T08:58:31;8.00;86.40
55313;DHT22;46892;45.668;11.756;2024-02-26T09:00:57;8.00;86.80
55313;DHT22;46892;45.668;11.756;2024-02-26T09:03:23;8.00;86.80
55313;DHT22;46892;45.668;11.756;2024-02-26T09:05:49;8.00;86.20
55313;DHT22;46892;45.668;11.756;2024-02-26T09:08:14;8.00;86.40
55313;DHT22;46892;45.668;11.756;2024-02-26T09:10:41;8.00;86.60
55313;DHT22;46892;45.668;11.756;2024-02-26T09:13:07;8.10;86.80
55313;DHT22;46892;45.668;11.756;2024-02-26T09:15:33;8.20;86.30
55313;DHT22;46892;45.668;11.756;2024-02-26T09:17:58;8.30;86.20
55313;DHT22;46892;45.668;11.756;2024-02-26T09:20:24;8.30;86.00
55313;DHT22;46892;45.668;11.756;2024-02-26T09:22:50;8.30;86.80
55313;DHT22;46892;45.668;11.756;2024-02-26T09:25:17;8.30;87.00
55313;DHT22;46892;45.668;11.756;2024-02-26T09:27:43;8.30;87.00
55313;DHT22;46892;45.668;11.756;2024-02-26T09:30:11;8.30;87.00
55313;DHT22;46892;45.668;11.756;2024-02-26T09:32:37;8.30;87.30
55313;DHT22;46892;45.668;11.756;2024-02-26T09:35:04;8.40;87.20
55313;DHT22;46892;45.668;11.756;2024-02-26T09:37:30;8.50;86.80
55313;DHT22;46892;45.668;11.756;2024-02-26T09:39:55;8.60;87.30
55313;DHT22;46892;45.668;11.756;2024-02-26T09:42:25;8.70;87.20
55313;DHT22;46892;45.668;11.756;2024-02-26T09:44:53;8.70;87.20
55313;DHT22;46892;45.668;11.756;2024-02-26T09:47:21;8.80;87.20
55313;DHT22;46892;45.668;11.756;2024-02-26T09:49:48;8.90;87.00
55313;DHT22;46892;45.668;11.756;2024-02-26T09:52:15;8.90;85.70
55313;DHT22;46892;45.668;11.756;2024-02-26T09:54:42;8.90;85.40
55313;DHT22;46892;45.668;11.756;2024-02-26T09:57:09;9.00;85.90
55313;DHT22;46892;45.668;11.756;2024-02-26T09:59:41;9.10;85.30
55313;DHT22;46892;45.668;11.756;2024-02-26T10:02:14;9.20;84.90
55313;DHT22;46892;45.668;11.756;2024-02-26T10:04:41;9.30;84.80
55313;DHT22;46892;45.668;11.756;2024-02-26T10:07:12;9.30;84.60
55313;DHT22;46892;45.668;11.756;2024-02-26T10:09:38;9.40;84.00
55313;DHT22;46892;45.668;11.756;2024-02-26T10:12:04;9.40;84.20
55313;DHT22;46892;45.668;11.756;2024-02-26T10:14:30;9.40;84.40
55313;DHT22;46892;45.668;11.756;2024-02-26T10:16:57;9.50;83.90
55313;DHT22;46892;45.668;11.756;2024-02-26T10:19:29;9.50;83.80
55313;DHT22;46892;45.668;11.756;2024-02-26T10:21:59;9.50;82.90
55313;DHT22;46892;45.668;11.756;2024-02-26T10:24:26;9.70;83.40
55313;DHT22;46892;45.668;11.756;2024-02-26T10:26:54;9.70;83.70
55313;DHT22;46892;45.668;11.756;2024-02-26T10:29:20;9.80;82.80
55313;DHT22;46892;45.668;11.756;2024-02-26T10:31:46;9.80;81.70
55313;DHT22;46892;45.668;11.756;2024-02-26T10:34:12;9.80;82.40
55313;DHT22;46892;45.668;11.756;2024-02-26T10:36:38;9.80;82.40
55313;DHT22;46892;45.668;11.756;2024-02-26T10:39:07;9.70;81.30
55313;DHT22;46892;45.668;11.756;2024-02-26T10:41:33;9.60;82.40
55313;DHT22;46892;45.668;11.756;2024-02-26T10:43:59;9.60;82.80
55313;DHT22;46892;45.668;11.756;2024-02-26T10:46:26;9.70;81.90
55313;DHT22;46892;45.668;11.756;2024-02-26T10:48:52;9.80;81.30
55313;DHT22;46892;45.668;11.756;2024-02-26T10:51:30;9.70;81.80
55313;DHT22;46892;45.668;11.756;2024-02-26T10:53:59;9.70;81.90
55313;DHT22;46892;45.668;11.756;2024-02-26T10:56:30;9.70;82.70
55313;DHT22;46892;45.668;11.756;2024-02-26T10:58:59;9.70;81.80
55313;DHT22;46892;45.668;11.756;2024-02-26T11:01:27;9.60;82.60
55313;DHT22;46892;45.668;11.756;2024-02-26T11:03:55;9.60;81.90
55313;DHT22;46892;45.668;11.756;2024-02-26T11:06:22;9.70;82.90
55313;DHT22;46892;45.668;11.756;2024-02-26T11:08:49;9.70;81.70
55313;DHT22;46892;45.668;11.756;2024-02-26T11:11:19;9.70;82.20
55313;DHT22;46892;45.668;11.756;2024-02-26T11:13:47;9.80;82.60
55313;DHT22;46892;45.668;11.756;2024-02-26T11:16:21;10.00;82.30
55313;DHT22;46892;45.668;11.756;2024-02-26T11:18:48;10.00;81.70
55313;DHT22;46892;45.668;11.756;2024-02-26T11:21:17;10.00;82.10
55313;DHT22;46892;45.668;11.756;2024-02-26T11:23:53;10.10;82.50
55313;DHT22;46892;45.668;11.756;2024-02-26T11:26:20;10.10;81.90
55313;DHT22;46892;45.668;11.756;2024-02-26T11:28:47;10.20;82.10
55313;DHT22;46892;45.668;11.756;2024-02-26T11:31:13;10.20;80.90
55313;DHT22;46892;45.668;11.756;2024-02-26T11:33:40;10.20;80.50
55313;DHT22;46892;45.668;11.756;2024-02-26T11:36:09;10.20;81.70
55313;DHT22;46892;45.668;11.756;2024-02-26T11:38:36;10.20;82.20
55313;DHT22;46892;45.668;11.756;2024-02-26T11:41:03;10.30;81.50
55313;DHT22;46892;45.668;11.756;2024-02-26T11:44:05;10.30;81.60
55313;DHT22;46892;45.668;11.756;2024-02-26T11:46:42;10.20;82.00
55313;DHT22;46892;45.668;11.756;2024-02-26T11:51:57;10.30;81.80
55313;DHT22;46892;45.668;11.756;2024-02-26T11:54:50;10.30;81.50
55313;DHT22;46892;45.668;11.756;2024-02-26T11:57:29;10.20;80.30
55313;DHT22;46892;45.668;11.756;2024-02-26T12:00:15;10.20;80.80
55313;DHT22;46892;45.668;11.756;2024-02-26T12:05:19;10.20;81.50
55313;DHT22;46892;45.668;11.756;2024-02-26T12:07:59;10.10;81.20
55313;DHT22;46892;45.668;11.756;2024-02-26T12:10:31;10.20;81.80
55313;DHT22;46892;45.668;11.756;2024-02-26T12:13:07;10.20;81.50
55313;DHT22;46892;45.668;11.756;2024-02-26T12:15:37;10.20;82.10
55313;DHT22;46892;45.668;11.756;2024-02-26T12:18:04;10.20;81.70
55313;DHT22;46892;45.668;11.756;2024-02-26T12:20:31;10.20;80.80
55313;DHT22;46892;45.668;11.756;2024-02-26T12:22:57;10.20;81.00
55313;DHT22;46892;45.668;11.756;2024-02-26T12:25:25;10.20;82.00
55313;DHT22;46892;45.668;11.756;2024-02-26T12:27:54;10.30;81.40
55313;DHT22;46892;45.668;11.756;2024-02-26T12:30:21;10.30;81.10
55313;DHT22;46892;45.668;11.756;2024-02-26T12:32:50;10.30;80.60
55313;DHT22;46892;45.668;11.756;2024-02-26T12:35:16;10.30;81.00
55313;DHT22;46892;45.668;11.756;2024-02-26T12:37:46;10.30;80.60
55313;DHT22;46892;45.668;11.756;2024-02-26T12:40:12;10.30;80.80
55313;DHT22;46892;45.668;11.756;2024-02-26T12:42:39;10.30;81.00
55313;DHT22;46892;45.668;11.756;2024-02-26T12:45:08;10.30;81.40
55313;DHT22;46892;45.668;11.756;2024-02-26T12:47:40;10.30;80.70
55313;DHT22;46892;45.668;11.756;2024-02-26T12:50:07;10.30;80.80
55313;DHT22;46892;45.668;11.756;2024-02-26T12:52:43;10.30;80.60
55313;DHT22;46892;45.668;11.756;2024-02-26T12:55:09;10.30;80.00
55313;DHT22;46892;45.668;11.756;2024-02-26T12:57:38;10.40;80.90
55313;DHT22;46892;45.668;11.756;2024-02-26T13:00:08;10.40;80.30
55313;DHT22;46892;45.668;11.756;2024-02-26T13:02:37;10.50;80.90
55313;DHT22;46892;45.668;11.756;2024-02-26T13:05:05;10.60;80.00
55313;DHT22;46892;45.668;11.756;2024-02-26T13:07:31;10.60;79.50
55313;DHT22;46892;45.668;11.756;2024-02-26T13:09:57;10.60;78.70
55313;DHT22;46892;45.668;11.756;2024-02-26T13:12:23;10.70;79.70
55313;DHT22;46892;45.668;11.756;2024-02-26T13:14:59;10.80;79.10
55313;DHT22;46892;45.668;11.756;2024-02-26T13:17:25;10.80;78.30
55313;DHT22;46892;45.668;11.756;2024-02-26T13:19:53;10.70;78.50
55313;DHT22;46892;45.668;11.756;2024-02-26T13:22:21;10.80;78.50
55313;DHT22;46892;45.668;11.756;2024-02-26T13:24:55;10.70;78.50
55313;DHT22;46892;45.668;11.756;2024-02-26T13:27:24;10.80;77.60
55313;DHT22;46892;45.668;11.756;2024-02-26T13:30:04;10.80;76.90
55313;DHT22;46892;45.668;11.756;2024-02-26T13:32:35;10.80;77.60
55313;DHT22;46892;45.668;11.756;2024-02-26T13:35:07;10.70;76.60
55313;DHT22;46892;45.668;11.756;2024-02-26T13:37:35;10.70;76.90
55313;DHT22;46892;45.668;11.756;2024-02-26T13:40:07;10.80;76.80
55313;DHT22;46892;45.668;11.756;2024-02-26T13:42:35;10.80;76.60
55313;DHT22;46892;45.668;11.756;2024-02-26T13:45:01;10.80;77.30
55313;DHT22;46892;45.668;11.756;2024-02-26T13:47:27;10.80;76.80
55313;DHT22;46892;45.668;11.756;2024-02-26T13:49:53;10.80;75.70
55313;DHT22;46892;45.668;11.756;2024-02-26T13:52:18;10.80;75.70
55313;DHT22;46892;45.668;11.756;2024-02-26T13:54:46;10.80;76.10
55313;DHT22;46892;45.668;11.756;2024-02-26T13:57:12;10.80;76.00
55313;DHT22;46892;45.668;11.756;2024-02-26T13:59:38;10.70;76.40
55313;DHT22;46892;45.668;11.756;2024-02-26T14:02:10;10.60;76.60
55313;DHT22;46892;45.668;11.756;2024-02-26T14:04:37;10.60;76.60
55313;DHT22;46892;45.668;11.756;2024-02-26T14:07:03;10.60;77.20
55313;DHT22;46892;45.668;11.756;2024-02-26T14:09:29;10.50;76.70
55313;DHT22;46892;45.668;11.756;2024-02-26T14:11:55;10.50;76.60
55313;DHT22;46892;45.668;11.756;2024-02-26T14:14:21;10.50;77.10
55313;DHT22;46892;45.668;11.756;2024-02-26T14:16:47;10.50;76.80
55313;DHT22;46892;45.668;11.756;2024-02-26T14:19:12;10.50;77.30
55313;DHT22;46892;45.668;11.756;2024-02-26T14:21:38;10.40;76.80
55313;DHT22;46892;45.668;11.756;2024-02-26T14:24:05;10.40;78.00
55313;DHT22;46892;45.668;11.756;2024-02-26T14:26:30;10.40;77.70
55313;DHT22;46892;45.668;11.756;2024-02-26T14:28:56;10.40;78.80
55313;DHT22;46892;45.668;11.756;2024-02-26T14:31:22;10.40;76.50
55313;DHT22;46892;45.668;11.756;2024-02-26T14:33:48;10.30;77.40
55313;DHT22;46892;45.668;11.756;2024-02-26T14:36:14;10.30;77.50
55313;DHT22;46892;45.668;11.756;2024-02-26T14:38:40;10.30;78.40
55313;DHT22;46892;45.668;11.756;2024-02-26T14:41:06;10.30;77.10
55313;DHT22;46892;45.668;11.756;2024-02-26T14:43:31;10.20;76.70
55313;DHT22;46892;45.668;11.756;2024-02-26T14:45:58;10.20;75.40
55313;DHT22;46892;45.668;11.756;2024-02-26T14:48:24;10.10;75.10
55313;DHT22;46892;45.668;11.756;2024-02-26T14:50:50;10.10;77.20
55313;DHT22;46892;45.668;11.756;2024-02-26T14:53:16;10.10;77.80
55313;DHT22;46892;45.668;11.756;2024-02-26T14:55:43;10.10;79.00
55313;DHT22;46892;45.668;11.756;2024-02-26T14:58:08;10.00;77.40
55313;DHT22;46892;45.668;11.756;2024-02-26T15:00:38;9.90;78.10
55313;DHT22;46892;45.668;11.756;2024-02-26T15:03:04;9.90;77.90
55313;DHT22;46892;45.668;11.756;2024-02-26T15:05:31;9.80;79.10
55313;DHT22;46892;45.668;11.756;2024-02-26T15:07:57;9.80;80.80
55313;DHT22;46892;45.668;11.756;2024-02-26T15:10:24;9.70;82.40
55313;DHT22;46892;45.668;11.756;2024-02-26T15:12:50;9.60;83.20
55313;DHT22;46892;45.668;11.756;2024-02-26T15:15:22;9.50;84.20
55313;DHT22;46892;45.668;11.756;2024-02-26T15:17:49;9.60;84.50
55313;DHT22;46892;45.668;11.756;2024-02-26T15:20:15;9.60;85.20
55313;DHT22;46892;45.668;11.756;2024-02-26T15:22:41;9.50;85.00
55313;DHT22;46892;45.668;11.756;2024-02-26T15:25:08;9.40;85.50
55313;DHT22;46892;45.668;11.756;2024-02-26T15:27:34;9.30;86.00
55313;DHT22;46892;45.668;11.756;2024-02-26T15:30:00;9.30;86.10
55313;DHT22;46892;45.668;11.756;2024-02-26T15:32:26;9.30;86.00